Time;durP1;ratioP1;P1;durP2;ratioP2;P2;SDS_P1;SDS_P2;PMS_P1;PMS_P2;Temp;Humidity;BMP_temperature;BMP_pressure;BME280_temperature;BME280_humidity;BME280_pressure;Samples;Min_cycle;Max_cycle;Signal;HPM_P1;HPM_P2
2023/05/05 00:01:27;;;;;;;9.52;6.40;;;18.10;84.60;;;;;;6202083;22;20014;-96
2023/05/05 00:03:52;;;;;;;9.77;6.93;;;18.10;84.80;;;;;;6228357;22;20007;-93
2023/05/05 00:06:18;;;;;;;11.50;6.80;;;18.00;85.20;;;;;;6231101;22;20095;-95
2023/05/05 00:08:45;;;;;;;11.07;7.07;;;18.00;85.70;;;;;;6208635;22;20419;-95
2023/05/05 00:11:10;;;;;;;11.23;7.05;;;18.00;85.80;;;;;;6205464;22;20008;-93
2023/05/05 00:13:37;;;;;;;10.18;6.72;;;18.00;85.60;;;;;;6229026;22;20003;-92
2023/05/05 00:16:03;;;;;;;10.45;6.93;;;18.00;85.20;;;;;;6256483;22;20010;-91
2023/05/05 00:18:29;;;;;;;13.45;7.07;;;18.00;85.40;;;;;;6212816;22;20004;-90
2023/05/05 00:20:55;;;;;;;10.18;6.95;;;17.90;85.80;;;;;;6233459;22;20004;-94
2023/05/05 00:23:21;;;;;;;8.77;6.68;;;17.90;86.40;;;;;;6256905;22;20395;-95
2023/05/05 00:25:46;;;;;;;10.48;7.13;;;17.90;86.10;;;;;;6231933;22;20411;-95
2023/05/05 00:28:15;;;;;;;11.93;7.30;;;17.80;86.90;;;;;;6232195;22;20035;-94
2023/05/05 00:30:41;;;;;;;12.75;7.25;;;17.80;87.30;;;;;;6206524;22;20004;-93
2023/05/05 00:33:07;;;;;;;9.93;6.88;;;17.80;87.10;;;;;;6253939;22;20045;-94
2023/05/05 00:35:33;;;;;;;13.40;7.30;;;17.80;87.10;;;;;;6239903;22;20007;-88
2023/05/05 00:37:58;;;;;;;10.80;7.40;;;17.80;87.90;;;;;;6227991;22;20061;-89
2023/05/05 00:40:24;;;;;;;11.50;6.70;;;17.70;87.60;;;;;;6202899;22;20003;-89
2023/05/05 00:42:51;;;;;;;9.13;7.22;;;17.70;87.70;;;;;;6202740;22;20012;-90
2023/05/05 00:45:17;;;;;;;10.50;7.18;;;17.70;88.30;;;;;;6227733;22;20008;-90
2023/05/05 00:47:48;;;;;;;9.82;7.22;;;17.70;88.30;;;;;;6262468;22;20011;-90
2023/05/05 00:50:22;;;;;;;10.18;6.97;;;17.60;88.30;;;;;;6278207;22;20139;-91
2023/05/05 00:52:49;;;;;;;11.27;7.28;;;17.60;88.60;;;;;;6278562;22;19995;-94
2023/05/05 00:55:15;;;;;;;10.77;7.53;;;17.60;89.20;;;;;;6230274;22;20061;-95
2023/05/05 00:57:41;;;;;;;10.25;6.78;;;17.60;89.60;;;;;;6256738;22;20004;-95
2023/05/05 01:00:08;;;;;;;9.32;6.78;;;17.50;89.40;;;;;;6257730;22;20000;-96
2023/05/05 01:02:34;;;;;;;10.07;7.25;;;17.50;89.60;;;;;;6241780;22;20003;-94
2023/05/05 01:05:02;;;;;;;11.38;7.22;;;17.50;89.70;;;;;;6272362;22;20368;-94
2023/05/05 01:07:57;;;;;;;9.05;7.07;;;17.40;90.20;;;;;;6248220;22;20439;-94
2023/05/05 01:10:29;;;;;;;11.60;7.78;;;17.50;90.50;;;;;;6277981;22;20414;-92
2023/05/05 01:13:22;;;;;;;12.70;7.88;;;17.40;90.50;;;;;;6278397;22;20490;-92
2023/05/05 01:16:16;;;;;;;12.00;6.93;;;17.40;90.50;;;;;;6278370;22;19999;-91
2023/05/05 01:18:55;;;;;;;11.98;7.65;;;17.30;90.60;;;;;;6278445;22;20091;-91
2023/05/05 01:21:32;;;;;;;13.02;8.15;;;17.40;90.70;;;;;;6278475;22;20011;-91
2023/05/05 01:24:38;;;;;;;10.52;7.90;;;17.30;90.20;;;;;;6278144;22;20033;-92
2023/05/05 01:27:38;;;;;;;14.48;8.60;;;17.20;90.10;;;;;;6278320;22;20086;-95
2023/05/05 01:30:16;;;;;;;15.60;8.73;;;17.10;89.60;;;;;;6278351;22;20003;-96
2023/05/05 01:32:50;;;;;;;14.70;9.07;;;17.10;90.10;;;;;;6278694;22;19999;-90
2023/05/05 01:35:26;;;;;;;12.68;8.57;;;17.10;90.30;;;;;;6277068;22;20437;-89
2023/05/05 01:38:15;;;;;;;12.25;9.52;;;17.10;90.30;;;;;;6278131;22;19996;-93
2023/05/05 01:40:46;;;;;;;13.73;10.57;;;17.10;90.30;;;;;;6278162;22;20003;-94
2023/05/05 01:43:16;;;;;;;18.60;10.93;;;17.10;90.40;;;;;;6278786;22;20087;-95
2023/05/05 01:45:45;;;;;;;14.07;11.30;;;17.00;90.50;;;;;;6284661;22;20000;-90
2023/05/05 01:48:14;;;;;;;15.63;11.20;;;17.00;90.70;;;;;;6255150;22;20094;-90
2023/05/05 01:50:41;;;;;;;13.75;10.90;;;17.00;90.80;;;;;;6277928;22;20492;-91
2023/05/05 01:53:08;;;;;;;13.93;11.07;;;17.00;91.10;;;;;;6277644;22;20006;-91
2023/05/05 01:55:36;;;;;;;18.10;12.38;;;17.10;91.30;;;;;;6252286;22;20522;-91
2023/05/05 01:58:04;;;;;;;18.50;12.00;;;17.10;91.50;;;;;;6252481;22;20004;-90
2023/05/05 02:00:32;;;;;;;15.90;11.48;;;17.10;91.60;;;;;;6262556;22;20014;-93
2023/05/05 02:02:59;;;;;;;16.20;12.82;;;17.10;91.70;;;;;;6263416;22;20004;-92
2023/05/05 02:05:26;;;;;;;14.07;11.73;;;17.10;91.90;;;;;;6266806;22;20030;-93
2023/05/05 02:07:56;;;;;;;19.70;14.00;;;17.10;92.10;;;;;;6260273;22;20014;-96
2023/05/05 02:10:22;;;;;;;17.30;13.30;;;17.10;92.40;;;;;;6280039;22;20010;-96
2023/05/05 02:12:50;;;;;;;23.35;13.65;;;17.10;92.50;;;;;;6229605;22;20065;-95
2023/05/05 02:15:17;;;;;;;22.42;13.57;;;17.10;92.60;;;;;;6279275;22;20082;-95
2023/05/05 02:17:45;;;;;;;17.20;13.77;;;17.10;92.90;;;;;;6251743;22;20008;-91
2023/05/05 02:20:12;;;;;;;15.45;13.10;;;17.10;93.10;;;;;;6277527;22;20031;-91
2023/05/05 02:22:39;;;;;;;15.23;12.93;;;17.10;93.20;;;;;;6252410;22;20051;-91
2023/05/05 02:25:06;;;;;;;18.63;14.50;;;17.10;93.50;;;;;;6251833;22;20335;-91
2023/05/05 02:27:34;;;;;;;19.58;13.82;;;17.10;93.80;;;;;;6251875;22;20442;-90
2023/05/05 02:30:05;;;;;;;17.77;13.52;;;17.20;94.10;;;;;;6251750;22;20007;-92
2023/05/05 02:32:34;;;;;;;18.42;13.68;;;17.20;94.20;;;;;;6277448;22;20000;-92
2023/05/05 02:35:12;;;;;;;16.77;12.98;;;17.20;94.30;;;;;;6278660;22;20006;-93
2023/05/05 02:37:42;;;;;;;16.42;13.55;;;17.10;94.40;;;;;;6277613;22;20007;-93
2023/05/05 02:40:10;;;;;;;19.40;14.32;;;17.10;94.50;;;;;;6280930;22;19995;-91
2023/05/05 02:42:39;;;;;;;15.60;12.90;;;17.10;94.80;;;;;;6282075;22;20000;-95
2023/05/05 02:45:11;;;;;;;18.33;14.35;;;17.10;94.90;;;;;;6277608;22;20362;-95
2023/05/05 02:47:37;;;;;;;19.27;14.50;;;17.10;95.30;;;;;;6277245;22;20067;-95
2023/05/05 02:50:04;;;;;;;19.52;14.35;;;17.00;95.50;;;;;;6228366;22;20331;-91
2023/05/05 02:52:31;;;;;;;16.55;14.40;;;17.00;95.50;;;;;;6280188;22;20007;-91
2023/05/05 02:54:58;;;;;;;22.00;14.88;;;17.00;95.60;;;;;;6255770;22;20004;-91
2023/05/05 02:57:34;;;;;;;20.45;16.20;;;16.90;95.80;;;;;;6282522;22;19999;-91
2023/05/05 03:00:30;;;;;;;19.92;15.35;;;16.80;95.90;;;;;;6280674;22;20011;-91
2023/05/05 03:03:16;;;;;;;18.75;15.77;;;16.70;96.20;;;;;;6280047;22;20000;-91
2023/05/05 03:06:00;;;;;;;23.17;16.38;;;16.70;96.60;;;;;;6280251;22;20031;-89
2023/05/05 03:08:41;;;;;;;20.05;16.08;;;16.60;96.90;;;;;;6276968;22;20423;-89
2023/05/05 03:11:17;;;;;;;21.13;16.35;;;16.60;97.20;;;;;;6277702;22;20030;-90
2023/05/05 03:13:43;;;;;;;18.23;15.85;;;16.60;97.40;;;;;;6276951;22;20006;-88
2023/05/05 03:16:11;;;;;;;20.80;16.52;;;16.60;97.70;;;;;;6251441;22;20491;-88
2023/05/05 03:18:38;;;;;;;20.60;15.93;;;16.60;98.00;;;;;;6251583;22;20082;-89
2023/05/05 03:21:08;;;;;;;18.77;15.65;;;16.60;98.20;;;;;;6251764;22;20031;-89
2023/05/05 03:23:35;;;;;;;20.50;16.40;;;16.60;98.40;;;;;;6252359;22;20015;-92
2023/05/05 03:26:01;;;;;;;18.60;16.55;;;16.60;98.60;;;;;;6276994;22;20087;-91
2023/05/05 03:28:27;;;;;;;21.20;16.77;;;16.50;98.70;;;;;;6226356;22;20003;-91
2023/05/05 03:30:53;;;;;;;20.77;16.77;;;16.50;98.80;;;;;;6278311;22;20045;-89
2023/05/05 03:33:19;;;;;;;21.45;17.05;;;16.50;99.10;;;;;;6255146;22;20007;-89
2023/05/05 03:35:44;;;;;;;24.17;18.38;;;16.40;99.20;;;;;;6283737;22;20296;-89
2023/05/05 03:38:10;;;;;;;20.48;16.40;;;16.40;99.60;;;;;;6257743;22;20019;-89
2023/05/05 03:40:37;;;;;;;22.13;17.88;;;16.30;99.90;;;;;;6229849;22;20003;-92
2023/05/05 03:43:02;;;;;;;21.75;17.70;;;16.30;99.90;;;;;;6265633;22;20012;-90
2023/05/05 03:45:28;;;;;;;20.27;17.80;;;16.30;99.90;;;;;;6253741;22;20012;-90
2023/05/05 03:47:54;;;;;;;21.65;17.75;;;16.30;99.90;;;;;;6227760;22;20330;-91
2023/05/05 03:50:20;;;;;;;21.73;18.10;;;16.30;99.90;;;;;;6254078;22;20011;-89
2023/05/05 03:52:46;;;;;;;22.27;18.23;;;16.20;99.90;;;;;;6253329;22;20004;-89
2023/05/05 03:55:11;;;;;;;20.75;17.20;;;16.20;99.90;;;;;;6228807;22;20023;-96
2023/05/05 03:57:37;;;;;;;22.17;17.85;;;16.20;99.90;;;;;;6253656;22;20435;-95
2023/05/05 04:00:03;;;;;;;22.40;18.10;;;16.20;99.90;;;;;;6285712;22;20003;-96
2023/05/05 04:02:29;;;;;;;23.42;18.65;;;16.10;99.90;;;;;;6254343;22;20012;-94
2023/05/05 04:04:55;;;;;;;20.60;18.25;;;16.10;99.90;;;;;;6228280;22;20015;-90
2023/05/05 04:07:22;;;;;;;22.55;17.88;;;16.00;99.90;;;;;;6228522;22;20442;-93
2023/05/05 04:09:50;;;;;;;21.42;18.30;;;16.00;99.90;;;;;;6237944;22;20000;-92
2023/05/05 04:12:16;;;;;;;23.52;17.67;;;15.90;99.90;;;;;;6254530;22;20438;-90
2023/05/05 04:14:42;;;;;;;21.10;16.60;;;15.90;99.90;;;;;;6227663;22;20008;-90
2023/05/05 04:17:07;;;;;;;18.50;16.08;;;15.90;99.90;;;;;;6253519;22;20098;-90
2023/05/05 04:19:33;;;;;;;20.42;15.75;;;15.90;99.90;;;;;;6259800;22;20008;-90
2023/05/05 04:22:00;;;;;;;21.05;16.20;;;15.90;99.90;;;;;;6288405;22;20008;-90
2023/05/05 04:24:26;;;;;;;21.08;16.27;;;15.90;99.90;;;;;;6261927;22;20007;-91
2023/05/05 04:26:52;;;;;;;20.45;16.15;;;15.90;99.90;;;;;;6262553;22;20008;-89
2023/05/05 04:29:22;;;;;;;20.90;15.57;;;15.90;99.90;;;;;;6284966;22;20000;-96
2023/05/05 04:31:50;;;;;;;19.98;15.82;;;15.90;99.90;;;;;;6234143;22;20008;-95
2023/05/05 04:34:16;;;;;;;19.40;16.20;;;15.90;99.90;;;;;;6257926;22;20000;-94
2023/05/05 04:36:42;;;;;;;24.85;15.25;;;15.90;99.90;;;;;;6255893;22;20015;-94
2023/05/05 04:39:11;;;;;;;18.70;15.55;;;15.90;99.90;;;;;;6255035;22;20006;-94
2023/05/05 04:41:37;;;;;;;17.83;14.90;;;15.90;99.90;;;;;;6261746;22;20008;-95
2023/05/05 04:44:03;;;;;;;19.20;14.75;;;15.90;99.90;;;;;;6265076;22;20004;-95
2023/05/05 04:46:29;;;;;;;19.13;13.95;;;15.90;99.90;;;;;;6293325;22;20004;-92
2023/05/05 04:48:57;;;;;;;16.65;13.95;;;15.90;99.90;;;;;;6235696;22;20019;-95
2023/05/05 04:51:23;;;;;;;15.15;13.00;;;15.90;99.90;;;;;;6279433;22;20066;-92
2023/05/05 04:53:51;;;;;;;15.88;13.43;;;15.90;99.90;;;;;;6262540;22;20004;-93
2023/05/05 04:56:20;;;;;;;15.48;13.43;;;15.80;99.90;;;;;;6259149;22;20000;-89
2023/05/05 04:58:46;;;;;;;17.13;12.43;;;15.90;99.90;;;;;;6263414;22;20003;-91
2023/05/05 05:01:12;;;;;;;15.63;12.48;;;15.90;99.90;;;;;;6252882;22;20010;-91
2023/05/05 05:03:37;;;;;;;15.07;12.07;;;15.90;99.90;;;;;;6232014;22;20004;-95
2023/05/05 05:06:03;;;;;;;15.52;12.05;;;15.80;99.90;;;;;;6258041;22;20065;-95
2023/05/05 05:08:29;;;;;;;13.80;11.05;;;15.80;99.90;;;;;;6259186;22;20019;-93
2023/05/05 05:10:58;;;;;;;16.40;11.38;;;15.80;99.90;;;;;;6236683;22;20015;-96
2023/05/05 05:13:27;;;;;;;14.32;12.00;;;15.80;99.90;;;;;;6266521;22;20085;-93
2023/05/05 05:15:53;;;;;;;13.68;10.05;;;15.70;99.90;;;;;;6257441;22;20011;-95
2023/05/05 05:18:19;;;;;;;13.20;10.80;;;15.70;99.90;;;;;;6254481;22;20000;-92
2023/05/05 05:20:45;;;;;;;14.40;10.60;;;15.70;99.90;;;;;;6279628;22;20346;-94
2023/05/05 05:23:10;;;;;;;13.93;10.68;;;15.60;99.90;;;;;;6253709;22;20094;-90
2023/05/05 05:25:36;;;;;;;13.23;9.98;;;15.70;99.90;;;;;;6228152;22;20004;-90
2023/05/05 05:28:02;;;;;;;11.30;9.07;;;15.70;99.90;;;;;;6227556;22;20015;-90
2023/05/05 05:30:27;;;;;;;12.73;8.93;;;15.60;99.90;;;;;;6227090;22;20012;-89
2023/05/05 05:32:53;;;;;;;11.75;9.05;;;15.50;99.90;;;;;;6228130;22;20034;-90
2023/05/05 05:35:19;;;;;;;10.90;8.07;;;15.60;99.90;;;;;;6227553;22;20034;-89
2023/05/05 05:37:46;;;;;;;11.63;8.30;;;15.60;99.90;;;;;;6260148;22;20015;-91
2023/05/05 05:40:12;;;;;;;11.77;7.68;;;15.60;99.90;;;;;;6255153;22;20380;-92
2023/05/05 05:42:47;;;;;;;10.88;6.88;;;15.60;99.90;;;;;;6253306;22;20476;-93
2023/05/05 05:45:12;;;;;;;11.00;7.57;;;15.60;99.90;;;;;;6278396;22;20000;-92
2023/05/05 05:47:38;;;;;;;11.48;6.60;;;15.70;99.90;;;;;;6252535;22;20008;-91
2023/05/05 05:50:05;;;;;;;9.65;7.13;;;15.70;99.90;;;;;;6278584;22;20007;-94
2023/05/05 05:52:35;;;;;;;10.48;7.40;;;15.70;99.90;;;;;;6254288;22;20373;-91
2023/05/05 05:55:01;;;;;;;8.85;5.95;;;15.70;99.90;;;;;;6227161;22;20073;-90
2023/05/05 05:57:28;;;;;;;9.27;6.55;;;15.80;99.90;;;;;;6253274;22;20015;-91
2023/05/05 05:59:54;;;;;;;9.07;6.28;;;15.80;99.90;;;;;;6258638;22;20028;-91
2023/05/05 06:02:19;;;;;;;8.57;5.75;;;15.80;99.90;;;;;;6258355;22;20339;-90
2023/05/05 06:04:46;;;;;;;12.27;6.07;;;15.90;99.90;;;;;;6284131;22;20008;-89
2023/05/05 06:07:12;;;;;;;8.38;5.80;;;15.90;99.90;;;;;;6254149;22;20010;-93
2023/05/05 06:09:38;;;;;;;11.88;6.55;;;16.00;99.90;;;;;;6227297;22;20012;-92
2023/05/05 06:12:03;;;;;;;11.10;6.50;;;16.00;99.90;;;;;;6277567;22;20431;-91
2023/05/05 06:14:29;;;;;;;10.63;6.57;;;16.00;99.90;;;;;;6251950;22;20004;-91
2023/05/05 06:16:55;;;;;;;10.40;6.43;;;16.10;99.90;;;;;;6251910;22;20007;-90
2023/05/05 06:19:20;;;;;;;12.50;6.82;;;16.10;99.90;;;;;;6251626;22;20011;-90
2023/05/05 06:21:46;;;;;;;9.85;6.93;;;16.20;99.90;;;;;;6226035;22;20401;-91
2023/05/05 06:24:12;;;;;;;11.50;6.80;;;16.20;99.90;;;;;;6248449;22;20090;-91
2023/05/05 06:26:39;;;;;;;12.23;7.68;;;16.20;99.90;;;;;;6253588;22;20024;-96
2023/05/05 06:29:05;;;;;;;14.40;7.30;;;16.30;99.90;;;;;;6261183;22;20018;-95
2023/05/05 06:31:31;;;;;;;11.80;7.07;;;16.30;99.90;;;;;;6233478;22;20035;-89
2023/05/05 06:34:00;;;;;;;11.80;8.00;;;16.40;99.90;;;;;;6226426;22;20091;-92
2023/05/05 06:36:26;;;;;;;12.30;8.57;;;16.40;99.90;;;;;;6277286;22;19999;-92
2023/05/05 06:38:52;;;;;;;11.55;8.10;;;16.40;99.90;;;;;;6276466;22;20059;-92
2023/05/05 06:41:18;;;;;;;12.50;8.23;;;16.50;99.90;;;;;;6278329;22;20004;-90
2023/05/05 06:43:44;;;;;;;12.75;8.15;;;16.60;99.90;;;;;;6253888;22;20038;-92
2023/05/05 06:46:15;;;;;;;12.55;8.35;;;16.60;99.90;;;;;;6228772;22;20015;-92
2023/05/05 06:48:41;;;;;;;12.25;8.80;;;16.60;99.90;;;;;;6256995;22;20008;-92
2023/05/05 06:51:08;;;;;;;14.32;8.88;;;16.70;99.90;;;;;;6230371;22;20094;-91
2023/05/05 06:53:35;;;;;;;14.68;9.02;;;16.70;99.90;;;;;;6231404;22;20039;-92
2023/05/05 06:56:04;;;;;;;12.68;8.60;;;16.80;99.90;;;;;;6230843;22;20490;-92
2023/05/05 06:58:32;;;;;;;13.98;9.13;;;16.90;99.90;;;;;;6208426;22;20061;-92
2023/05/05 07:00:58;;;;;;;13.55;9.23;;;16.90;99.90;;;;;;6232032;22;20018;-91
2023/05/05 07:03:24;;;;;;;15.60;9.75;;;17.00;99.90;;;;;;6228879;22;20039;-92
2023/05/05 07:05:50;;;;;;;14.57;10.05;;;17.10;99.90;;;;;;6204794;22;20008;-91
2023/05/05 07:08:15;;;;;;;14.00;9.55;;;17.20;99.90;;;;;;6229716;22;20008;-91
2023/05/05 07:10:41;;;;;;;15.35;9.60;;;17.30;99.90;;;;;;6230000;22;20289;-96
2023/05/05 07:13:07;;;;;;;16.77;11.15;;;17.30;99.90;;;;;;6227490;22;20010;-96
2023/05/05 07:15:33;;;;;;;15.73;11.20;;;17.40;99.90;;;;;;6203612;22;20062;-91
2023/05/05 07:18:01;;;;;;;16.27;11.95;;;17.40;99.90;;;;;;6228729;22;20415;-91
2023/05/05 07:20:29;;;;;;;15.63;10.40;;;17.50;99.90;;;;;;6253642;22;20103;-90
2023/05/05 07:22:55;;;;;;;16.40;10.38;;;17.50;99.90;;;;;;6203959;22;20331;-91
2023/05/05 07:25:23;;;;;;;15.27;11.57;;;17.60;99.90;;;;;;6228200;22;20004;-92
2023/05/05 07:27:50;;;;;;;16.98;11.43;;;17.60;99.90;;;;;;6204023;22;20104;-91
2023/05/05 07:30:15;;;;;;;16.25;10.50;;;17.70;99.90;;;;;;6202273;22;20007;-91
2023/05/05 07:32:41;;;;;;;16.48;10.23;;;17.80;99.90;;;;;;6206252;22;20441;-91
2023/05/05 07:35:07;;;;;;;14.75;11.00;;;17.80;99.90;;;;;;6261637;22;20384;-92
2023/05/05 07:37:33;;;;;;;17.23;10.93;;;17.90;99.90;;;;;;6208528;22;20010;-90
2023/05/05 07:39:58;;;;;;;15.60;9.75;;;18.00;99.90;;;;;;6229458;22;20335;-89
2023/05/05 07:42:24;;;;;;;16.90;11.05;;;18.00;99.90;;;;;;6229913;22;20381;-90
2023/05/05 07:44:50;;;;;;;19.05;10.43;;;18.10;99.90;;;;;;6231255;22;20008;-90
2023/05/05 07:47:19;;;;;;;15.52;9.57;;;18.20;99.90;;;;;;6234341;22;20016;-91
2023/05/05 07:49:44;;;;;;;13.13;9.02;;;18.20;99.90;;;;;;6259028;22;20007;-91
2023/05/05 07:52:11;;;;;;;18.02;10.65;;;18.30;99.90;;;;;;6204092;22;20334;-92
2023/05/05 07:54:36;;;;;;;14.68;9.90;;;18.40;99.90;;;;;;6228053;22;20050;-92
2023/05/05 07:57:02;;;;;;;13.73;9.68;;;18.50;99.90;;;;;;6202358;22;20004;-92
2023/05/05 07:59:28;;;;;;;12.52;9.90;;;18.50;99.90;;;;;;6202216;22;20004;-92
2023/05/05 08:01:54;;;;;;;14.43;10.45;;;18.60;99.90;;;;;;6202731;22;20004;-90
2023/05/05 08:04:20;;;;;;;18.67;10.52;;;18.60;99.90;;;;;;6227333;22;20095;-91
2023/05/05 08:06:45;;;;;;;16.63;10.43;;;18.70;99.90;;;;;;6227840;22;20008;-92
2023/05/05 08:09:11;;;;;;;13.93;9.98;;;18.70;99.90;;;;;;6227184;22;20423;-93
2023/05/05 08:11:37;;;;;;;11.23;8.68;;;18.80;99.90;;;;;;6202053;22;20461;-91
2023/05/05 08:14:02;;;;;;;12.95;8.18;;;18.90;99.90;;;;;;6202176;22;20008;-92
2023/05/05 08:16:28;;;;;;;12.63;8.18;;;19.00;99.90;;;;;;6202601;22;20007;-91
2023/05/05 08:18:54;;;;;;;12.73;9.05;;;19.10;99.90;;;;;;6202587;22;20327;-92
2023/05/05 08:21:20;;;;;;;13.27;9.18;;;19.10;99.90;;;;;;6204276;22;20007;-95
2023/05/05 08:23:45;;;;;;;12.40;8.57;;;19.20;99.90;;;;;;6263285;22;20053;-96
2023/05/05 08:26:11;;;;;;;12.68;7.50;;;19.20;99.90;;;;;;6274405;22;20043;-96
2023/05/05 08:28:43;;;;;;;11.27;7.95;;;19.30;99.90;;;;;;6277482;22;20003;-96
2023/05/05 08:31:09;;;;;;;12.30;8.10;;;19.40;99.90;;;;;;6253803;22;20024;-94
2023/05/05 08:33:39;;;;;;;14.85;8.77;;;19.50;99.90;;;;;;6277709;22;20008;-94
2023/05/05 08:36:06;;;;;;;14.70;8.73;;;19.50;99.90;;;;;;6222905;22;20015;-93
2023/05/05 08:38:31;;;;;;;14.68;8.27;;;19.60;99.90;;;;;;6252628;22;20264;-93
2023/05/05 08:40:57;;;;;;;12.00;7.18;;;19.70;99.90;;;;;;6250035;22;20049;-94
2023/05/05 08:43:23;;;;;;;9.77;5.90;;;19.70;99.90;;;;;;6227469;22;19991;-93
2023/05/05 08:45:52;;;;;;;11.05;6.97;;;19.80;99.90;;;;;;6243202;22;20015;-95
2023/05/05 08:48:21;;;;;;;11.63;6.93;;;19.90;99.90;;;;;;6260018;22;20008;-94
2023/05/05 08:50:57;;;;;;;10.82;7.72;;;19.90;99.90;;;;;;6257736;22;20018;-96
2023/05/05 08:53:48;;;;;;;18.25;8.30;;;19.90;99.90;;;;;;6262453;22;20000;-96
2023/05/05 08:56:15;;;;;;;11.30;8.27;;;19.90;99.90;;;;;;6260180;22;20062;-91
2023/05/05 08:58:42;;;;;;;11.02;7.80;;;20.00;99.90;;;;;;6252070;22;20095;-92
2023/05/05 09:01:09;;;;;;;10.82;6.93;;;20.00;99.90;;;;;;6252450;22;20004;-92
2023/05/05 09:03:36;;;;;;;8.23;5.70;;;20.10;99.90;;;;;;6229055;22;20011;-92
2023/05/05 09:06:03;;;;;;;8.13;5.25;;;20.10;99.90;;;;;;6230507;22;20004;-93
2023/05/05 09:08:30;;;;;;;8.50;4.68;;;20.10;99.90;;;;;;6253771;22;20003;-94
2023/05/05 09:10:56;;;;;;;8.88;4.95;;;20.20;99.90;;;;;;6227437;22;20003;-92
2023/05/05 09:13:22;;;;;;;8.52;4.90;;;20.20;99.90;;;;;;6227018;22;20375;-91
2023/05/05 09:15:48;;;;;;;10.32;5.40;;;20.30;99.90;;;;;;6201636;22;20019;-91
2023/05/05 09:18:14;;;;;;;8.70;4.90;;;20.30;99.90;;;;;;6201872;22;20004;-91
2023/05/05 09:20:40;;;;;;;9.02;5.82;;;20.40;99.90;;;;;;6252322;22;20004;-91
2023/05/05 09:23:13;;;;;;;9.05;6.10;;;20.50;99.90;;;;;;6251565;22;20082;-91
2023/05/05 09:25:40;;;;;;;11.73;7.15;;;20.50;99.90;;;;;;6252932;22;20004;-90
2023/05/05 09:28:10;;;;;;;9.98;5.40;;;20.60;99.90;;;;;;6227915;22;20007;-90
2023/05/05 09:30:36;;;;;;;10.93;5.85;;;20.60;99.90;;;;;;6252310;22;20004;-91
2023/05/05 09:33:02;;;;;;;7.28;5.03;;;20.60;99.90;;;;;;6262044;22;20094;-90
2023/05/05 09:35:46;;;;;;;7.72;4.93;;;20.60;99.90;;;;;;6241070;22;20011;-95
2023/05/05 09:38:13;;;;;;;5.90;3.90;;;20.70;99.90;;;;;;6287548;22;20003;-94
2023/05/05 09:40:52;;;;;;;6.43;3.30;;;20.70;99.90;;;;;;6228188;22;20011;-94
2023/05/05 09:43:22;;;;;;;6.30;3.45;;;20.80;99.90;;;;;;6252475;22;20010;-92
2023/05/05 09:45:49;;;;;;;7.13;4.20;;;20.80;99.90;;;;;;6253270;22;20053;-92
2023/05/05 09:48:29;;;;;;;6.97;3.53;;;20.80;99.90;;;;;;6243973;22;20296;-92
2023/05/05 09:50:56;;;;;;;7.43;4.10;;;20.90;99.70;;;;;;6282261;22;20008;-90
2023/05/05 09:53:23;;;;;;;9.45;3.80;;;20.90;99.50;;;;;;6252511;22;20230;-90
2023/05/05 09:55:59;;;;;;;10.38;4.25;;;20.90;99.20;;;;;;6277712;22;20075;-90
2023/05/05 09:58:29;;;;;;;12.13;4.25;;;20.90;98.90;;;;;;6279084;22;20049;-90
2023/05/05 10:00:57;;;;;;;8.95;4.32;;;20.90;99.00;;;;;;6282798;22;20000;-90
2023/05/05 10:03:23;;;;;;;11.95;4.78;;;21.00;99.10;;;;;;6267175;22;20094;-92
2023/05/05 10:05:50;;;;;;;9.50;5.32;;;21.10;99.20;;;;;;6298719;22;20003;-93
2023/05/05 10:08:22;;;;;;;7.82;4.05;;;21.10;98.70;;;;;;6274075;22;20023;-92
2023/05/05 10:11:05;;;;;;;9.98;4.30;;;21.10;98.80;;;;;;6296076;22;20438;-93
2023/05/05 10:13:35;;;;;;;8.32;4.45;;;21.20;98.70;;;;;;6279621;22;20008;-93
2023/05/05 10:16:03;;;;;;;7.63;4.28;;;21.20;98.50;;;;;;6285671;22;20002;-92
2023/05/05 10:18:31;;;;;;;6.65;3.90;;;21.20;98.40;;;;;;6256150;22;20015;-92
2023/05/05 10:20:58;;;;;;;9.55;4.43;;;21.20;98.50;;;;;;6278397;22;20448;-90
2023/05/05 10:23:35;;;;;;;7.57;3.88;;;21.20;98.20;;;;;;6278112;22;20419;-94
2023/05/05 10:26:04;;;;;;;6.10;3.30;;;21.20;98.30;;;;;;6278428;22;20510;-92
2023/05/05 10:28:36;;;;;;;6.35;3.40;;;21.20;98.40;;;;;;6280280;22;20010;-90
2023/05/05 10:31:07;;;;;;;6.75;4.38;;;21.20;98.10;;;;;;6276835;22;20000;-90
2023/05/05 10:33:35;;;;;;;;;;;21.20;97.90;;;;;;6278822;22;20057;-90
2023/05/05 10:36:04;;;;;;;9.32;5.45;;;21.20;97.90;;;;;;6282993;22;19903;-90
2023/05/05 10:38:31;;;;;;;10.57;5.13;;;21.20;97.50;;;;;;6283958;22;20064;-91
2023/05/05 10:40:58;;;;;;;8.02;4.53;;;21.10;97.10;;;;;;6259555;22;20003;-89
2023/05/05 10:43:24;;;;;;;8.35;3.97;;;21.10;97.10;;;;;;6286196;22;20004;-89
2023/05/05 10:45:50;;;;;;;7.97;3.55;;;21.10;97.10;;;;;;6260017;22;20008;-89
2023/05/05 10:49:02;;;;;;;6.35;3.88;;;21.10;96.80;;;;;;6270312;22;20018;-89
2023/05/05 10:51:50;;;;;;;5.78;3.17;;;21.00;96.80;;;;;;6218099;22;20014;-90
2023/05/05 10:54:38;;;;;;;6.60;3.53;;;21.00;97.10;;;;;;6267564;22;19999;-91
2023/05/05 10:57:08;;;;;;;6.18;3.65;;;21.10;97.30;;;;;;6269332;22;19996;-92
2023/05/05 10:59:37;;;;;;;5.03;3.03;;;21.10;97.30;;;;;;6253903;22;20000;-90
2023/05/05 11:02:21;;;;;;;8.50;3.20;;;21.10;96.40;;;;;;6251906;22;20007;-89
2023/05/05 11:05:22;;;;;;;5.65;2.65;;;21.10;96.60;;;;;;6251863;22;20385;-89
2023/05/05 11:07:50;;;;;;;4.80;2.03;;;21.10;95.80;;;;;;6101720;23;20006;-92
2023/05/05 11:10:19;;;;;;;5.00;2.40;;;21.10;96.00;;;;;;6228997;22;20079;-93
2023/05/05 11:12:51;;;;;;;4.70;1.88;;;21.00;95.70;;;;;;6251031;22;19995;-92
2023/05/05 11:15:28;;;;;;;10.20;2.15;;;20.90;96.10;;;;;;6251805;22;19999;-93
2023/05/05 11:17:59;;;;;;;6.55;1.80;;;20.90;96.80;;;;;;6251852;22;20010;-92
2023/05/05 11:20:44;;;;;;;4.60;2.33;;;20.90;97.40;;;;;;6226577;22;20004;-92
2023/05/05 11:23:09;;;;;;;7.53;4.38;;;20.90;97.80;;;;;;6251357;22;20003;-92
2023/05/05 11:25:39;;;;;;;7.90;3.28;;;20.90;98.60;;;;;;6251433;22;20488;-91
2023/05/05 11:28:15;;;;;;;6.05;3.10;;;20.90;99.30;;;;;;6252803;22;20000;-89
2023/05/05 11:30:57;;;;;;;7.43;2.97;;;20.80;99.90;;;;;;6252811;22;20058;-89
2023/05/05 11:33:36;;;;;;;6.43;2.90;;;20.90;99.90;;;;;;6252871;22;20318;-90
2023/05/05 11:36:13;;;;;;;6.95;2.90;;;20.90;99.90;;;;;;6251828;22;20006;-88
2023/05/05 11:39:12;;;;;;;3.25;1.30;;;20.90;99.90;;;;;;6253438;22;19999;-90
2023/05/05 11:42:10;;;;;;;1.95;0.80;;;20.80;98.00;;;;;;6251967;22;20431;-90
2023/05/05 11:44:36;;;;;;;2.45;0.80;;;20.40;97.30;;;;;;6257482;22;20113;-91
2023/05/05 11:47:05;;;;;;;5.28;0.90;;;20.00;98.10;;;;;;6254269;22;20007;-91
2023/05/05 11:49:36;;;;;;;5.05;0.80;;;19.70;99.20;;;;;;6254642;22;20012;-93
2023/05/05 11:52:02;;;;;;;7.10;1.15;;;19.40;99.90;;;;;;6257431;22;20037;-92
2023/05/05 11:54:40;;;;;;;4.15;1.10;;;19.20;99.90;;;;;;6252174;22;20026;-94
2023/05/05 11:57:07;;;;;;;10.38;1.52;;;19.10;99.90;;;;;;6254607;22;19999;-94
2023/05/05 11:59:50;;;;;;;9.23;1.30;;;18.90;99.90;;;;;;6254570;22;20000;-92
2023/05/05 12:02:27;;;;;;;5.40;1.60;;;18.70;99.90;;;;;;6256547;22;20144;-93
2023/05/05 12:04:53;;;;;;;6.22;2.03;;;18.40;99.90;;;;;;6253168;22;20064;-95
2023/05/05 12:07:20;;;;;;;1.98;0.93;;;18.20;99.90;;;;;;6230310;22;20015;-92
2023/05/05 12:09:48;;;;;;;6.47;1.30;;;18.00;99.90;;;;;;6253527;22;20010;-93
2023/05/05 12:12:14;;;;;;;4.13;0.90;;;17.80;99.90;;;;;;6253094;22;20000;-94
2023/05/05 12:14:53;;;;;;;3.75;1.00;;;17.70;99.90;;;;;;6253768;22;20015;-94
2023/05/05 12:17:22;;;;;;;2.63;0.80;;;17.60;99.90;;;;;;6231358;22;19999;-92
2023/05/05 12:19:52;;;;;;;6.40;1.20;;;17.50;99.90;;;;;;6232630;22;20058;-90
2023/05/05 12:22:26;;;;;;;3.40;0.80;;;17.50;99.90;;;;;;6265495;22;20004;-91
2023/05/05 12:25:00;;;;;;;4.20;0.90;;;17.40;99.90;;;;;;6241007;22;20034;-92
2023/05/05 12:27:27;;;;;;;2.95;0.93;;;17.40;99.90;;;;;;6263406;22;20004;-90
2023/05/05 12:32:28;;;;;;;8.55;1.35;;;17.30;99.90;;;;;;6152624;22;20347;-91
2023/05/05 12:42:40;;;;;;;4.45;1.60;;;17.30;99.90;;;;;;6159405;22;20019;-92
2023/05/05 12:45:14;;;;;;;5.63;2.78;;;17.30;99.90;;;;;;6227566;22;20010;-93
2023/05/05 12:47:42;;;;;;;4.13;1.38;;;17.30;99.90;;;;;;6253474;22;20011;-92
2023/05/05 13:00:30;;;;;;;2.65;1.30;;;17.20;99.90;;;;;;6278390;22;20327;-93
2023/05/05 13:02:55;;;;;;;6.97;1.33;;;17.20;99.90;;;;;;6227956;22;20022;-92
2023/05/05 14:32:18;;;;;;;4.22;1.92;;;17.10;99.90;;;;;;5989955;24;20021;-93
2023/05/05 14:43:12;;;;;;;;;;;;;;;;;;;;;
2023/05/05 14:46:26;;;;;;;;;;;;;;;;;;;;;